createdAt,value
2022-08-19T00:04:53.814Z,101461.69
2022-08-19T00:09:56.893Z,101456.06
2022-08-19T00:15:04.334Z,101435.25
2022-08-19T00:20:11.784Z,101427.13
2022-08-19T00:25:14.258Z,101419.44
2022-08-19T00:30:17.736Z,101430.28
2022-08-19T00:35:19.584Z,101426.94
2022-08-19T00:40:21.990Z,101424.44
2022-08-19T00:45:26.881Z,101415.09
2022-08-19T00:50:29.152Z,101417.19
2022-08-19T00:55:32.175Z,101399.06
2022-08-19T01:00:37.966Z,101412.59
2022-08-19T01:05:48.413Z,101404.72
2022-08-19T01:10:59.883Z,101410.13
2022-08-19T01:16:08.406Z,101408.66
2022-08-19T01:21:34.689Z,101404.75
2022-08-19T01:26:45.818Z,101412.03
2022-08-19T01:31:53.098Z,101407.88
2022-08-19T01:36:54.980Z,101420.78
2022-08-19T01:41:56.838Z,101413.31
2022-08-19T01:47:04.734Z,101412.91
2022-08-19T01:52:07.090Z,101397.91
2022-08-19T01:57:13.686Z,101393.56
2022-08-19T02:02:23.025Z,101398.97
2022-08-19T02:07:29.289Z,101391.25
2022-08-19T02:12:33.168Z,101405.84
2022-08-19T02:17:35.002Z,101407.72
2022-08-19T02:22:36.843Z,101398.19
2022-08-19T02:27:39.651Z,101386.75
2022-08-19T02:32:46.040Z,101391.28
2022-08-19T02:38:10.449Z,101389.03
2022-08-19T02:43:12.340Z,101401.94
2022-08-19T02:48:21.421Z,101390.72
2022-08-19T02:53:27.051Z,101388.44
2022-08-19T02:58:31.464Z,101378.88
2022-08-19T03:03:35.432Z,101376.84
2022-08-19T03:08:38.366Z,101383.94
2022-08-19T03:13:44.267Z,101388.53
2022-08-19T03:18:50.778Z,101370.44
2022-08-19T03:23:56.485Z,101365.69
2022-08-19T03:29:05.585Z,101361.34
2022-08-19T03:34:12.670Z,101355.34
2022-08-19T03:39:18.522Z,101364.91
2022-08-19T03:44:26.468Z,101359.50
2022-08-19T03:49:31.072Z,101369.50
2022-08-19T03:54:35.484Z,101373.22
2022-08-19T03:59:42.709Z,101371.38
2022-08-19T04:04:45.037Z,101365.34
2022-08-19T04:09:46.831Z,101374.25
2022-08-19T04:14:50.922Z,101382.75
2022-08-19T04:19:52.824Z,101389.63
2022-08-19T04:24:56.629Z,101381.66
2022-08-19T04:30:04.121Z,101380.41
2022-08-19T04:35:17.517Z,101371.53
2022-08-19T04:40:39.312Z,101375.00
2022-08-19T04:45:49.523Z,101383.91
2022-08-19T04:51:07.734Z,101377.84
2022-08-19T04:56:11.046Z,101372.03
2022-08-19T05:01:24.103Z,101373.50
2022-08-19T05:06:29.709Z,101398.81
2022-08-19T05:11:34.960Z,101392.78
2022-08-19T05:16:36.899Z,101399.44
2022-08-19T05:21:59.201Z,101417.69
2022-08-19T05:27:01.715Z,101419.78
2022-08-19T05:32:10.403Z,101426.06
2022-08-19T05:37:12.192Z,101431.69
2022-08-19T05:42:16.540Z,101435.44
2022-08-19T05:47:23.091Z,101432.50
2022-08-19T05:52:31.683Z,101420.69
2022-08-19T05:57:33.645Z,101422.97
2022-08-19T06:02:40.607Z,101425.88
2022-08-19T06:07:45.879Z,101424.69
2022-08-19T06:12:47.759Z,101409.72
2022-08-19T06:17:54.294Z,101400.63
2022-08-19T06:22:56.145Z,101405.59
2022-08-19T06:28:14.758Z,101404.97
2022-08-19T06:33:17.338Z,101397.72
2022-08-19T06:38:24.493Z,101390.91
2022-08-19T06:43:29.153Z,101397.94
2022-08-19T06:48:31.575Z,101401.28
2022-08-19T06:53:35.044Z,101408.75
2022-08-19T06:58:39.144Z,101416.22
2022-08-19T07:03:43.169Z,101425.19
2022-08-19T07:08:48.659Z,101423.50
2022-08-19T07:13:52.193Z,101424.53
2022-08-19T07:18:57.496Z,101423.88
2022-08-19T07:24:05.346Z,101418.47
2022-08-19T07:29:12.234Z,101415.50
2022-08-19T07:34:19.928Z,101415.00
2022-08-19T07:39:28.555Z,101434.88
2022-08-19T07:44:31.444Z,101434.38
2022-08-19T07:49:38.439Z,101430.09
2022-08-19T07:54:44.153Z,101446.59
2022-08-19T07:59:46.899Z,101453.91
2022-08-19T08:05:08.301Z,101465.72
2022-08-19T08:10:20.748Z,101467.66
2022-08-19T08:15:23.272Z,101476.25
2022-08-19T08:20:30.566Z,101480.09
2022-08-19T08:25:36.441Z,101485.59
2022-08-19T08:30:45.086Z,101499.25
2022-08-19T08:35:47.567Z,101499.00
2022-08-19T08:40:55.749Z,101499.34
2022-08-19T08:46:31.001Z,101502.69
2022-08-19T08:51:59.355Z,101514.88
2022-08-19T08:57:13.908Z,101511.25
2022-08-19T09:02:20.746Z,101502.50
2022-08-19T09:07:35.268Z,101507.84
2022-08-19T09:13:09.427Z,101509.34
2022-08-19T09:18:15.182Z,101509.31
2022-08-19T09:23:26.541Z,101511.44
2022-08-19T09:28:34.043Z,101510.25
2022-08-19T09:33:36.439Z,101516.31
2022-08-19T09:38:43.409Z,101510.72
2022-08-19T09:43:53.076Z,101501.16
2022-08-19T09:49:06.266Z,101500.09
2022-08-19T09:54:11.222Z,101497.13
2022-08-19T09:59:13.431Z,101498.41
2022-08-19T10:04:20.472Z,101508.16
2022-08-19T10:09:35.067Z,101499.25
2022-08-19T10:14:37.961Z,101498.91
2022-08-19T10:19:41.913Z,101488.72
2022-08-19T10:24:58.697Z,101481.47
2022-08-19T10:30:02.113Z,101496.50
2022-08-19T10:35:09.047Z,101480.50
2022-08-19T10:40:14.631Z,101479.06
2022-08-19T10:45:16.504Z,101478.25
2022-08-19T10:50:36.623Z,101472.50
2022-08-19T10:56:04.290Z,101479.09
2022-08-19T11:01:09.127Z,101476.38
2022-08-19T11:06:10.960Z,101476.59
2022-08-19T11:11:13.350Z,101467.34
2022-08-19T11:16:17.937Z,101465.53
2022-08-19T11:21:25.481Z,101469.13
2022-08-19T11:26:33.497Z,101469.78
2022-08-19T11:31:37.235Z,101463.03
2022-08-19T11:36:46.824Z,101471.38
2022-08-19T11:41:51.352Z,101466.94
2022-08-19T11:46:53.744Z,101457.84
2022-08-19T11:51:55.515Z,101467.59
2022-08-19T11:56:57.274Z,101464.97
2022-08-19T12:02:00.167Z,101463.78
2022-08-19T12:07:02.890Z,101466.69
2022-08-19T12:12:05.174Z,101467.66
2022-08-19T12:17:12.449Z,101471.13
2022-08-19T12:22:22.388Z,101466.81
2022-08-19T12:27:40.292Z,101473.78
2022-08-19T12:32:48.111Z,101464.44
2022-08-19T12:37:56.977Z,101457.00
2022-08-19T12:43:00.280Z,101462.97
2022-08-19T12:48:02.127Z,101459.63
2022-08-19T12:53:23.963Z,101454.63
2022-08-19T12:58:27.506Z,101458.09
2022-08-19T13:03:30.906Z,101450.81
2022-08-19T13:08:33.652Z,101451.50
2022-08-19T13:13:37.869Z,101446.06
2022-08-19T13:18:48.286Z,101444.19
2022-08-19T13:23:53.934Z,101433.94
2022-08-19T13:29:14.714Z,101447.72
2022-08-19T13:34:18.662Z,101434.06
2022-08-19T13:39:26.117Z,101430.22
2022-08-19T13:44:30.484Z,101417.16
2022-08-19T13:49:37.207Z,101410.81
2022-08-19T13:54:38.988Z,101413.34
2022-08-19T13:59:42.966Z,101405.25
2022-08-19T14:04:45.045Z,101406.28
2022-08-19T14:09:46.811Z,101392.47
2022-08-19T14:14:53.460Z,101404.81
2022-08-19T14:20:10.926Z,101397.28
2022-08-19T14:25:15.837Z,101396.81
2022-08-19T14:30:20.948Z,101395.72
2022-08-19T14:35:25.842Z,101401.47
2022-08-19T14:40:31.203Z,101389.00
2022-08-19T14:45:36.730Z,101392.16
2022-08-19T14:50:39.360Z,101393.69
2022-08-19T14:55:46.451Z,101389.09
2022-08-19T15:00:50.294Z,101386.06
2022-08-19T15:05:58.316Z,101385.28
2022-08-19T15:11:00.885Z,101384.19
2022-08-19T15:16:05.542Z,101390.69
2022-08-19T15:21:13.442Z,101389.94
2022-08-19T15:26:23.109Z,101393.84
2022-08-19T15:31:28.165Z,101389.53
2022-08-19T15:36:32.732Z,101396.88
2022-08-19T15:41:34.887Z,101402.56
2022-08-19T15:46:41.494Z,101395.31
2022-08-19T15:51:45.321Z,101401.50
2022-08-19T15:57:07.526Z,101401.72
2022-08-19T16:02:32.644Z,101405.59
2022-08-19T16:07:34.433Z,101406.66
2022-08-19T16:12:41.387Z,101408.34
2022-08-19T16:17:43.595Z,101401.31
2022-08-19T16:22:59.352Z,101407.06
2022-08-19T16:28:08.551Z,101408.75
2022-08-19T16:33:10.801Z,101403.72
2022-08-19T16:38:13.597Z,101402.75
2022-08-19T16:43:17.568Z,101407.00
2022-08-19T16:48:23.977Z,101415.03
2022-08-19T16:53:31.816Z,101409.31
2022-08-19T16:58:36.792Z,101408.84
2022-08-19T17:03:41.245Z,101411.28
2022-08-19T17:08:48.712Z,101413.38
2022-08-19T17:13:56.683Z,101413.50
2022-08-19T17:19:01.679Z,101414.97
2022-08-19T17:24:08.690Z,101405.16
2022-08-19T17:29:12.921Z,101406.28
2022-08-19T17:34:17.309Z,101406.84
2022-08-19T17:39:19.407Z,101400.22
2022-08-19T17:44:25.597Z,101409.25
2022-08-19T17:49:30.322Z,101424.78
2022-08-19T17:54:37.329Z,101431.00
2022-08-19T17:59:44.066Z,101435.03
2022-08-19T18:04:51.133Z,101436.41
2022-08-19T18:10:01.771Z,101431.59
2022-08-19T18:15:10.153Z,101429.34
2022-08-19T18:20:14.312Z,101425.31
2022-08-19T18:25:28.217Z,101423.34
2022-08-19T18:30:34.455Z,101419.59
2022-08-19T18:35:39.388Z,101406.94
2022-08-19T18:41:02.780Z,101421.06
2022-08-19T18:46:36.993Z,101425.09
2022-08-19T18:51:42.355Z,101418.97
2022-08-19T19:01:57.082Z,101435.88
2022-08-19T19:07:03.722Z,101440.13
2022-08-19T19:12:11.529Z,101436.06
2022-08-19T19:17:14.813Z,101437.19
2022-08-19T19:22:21.611Z,101434.63
2022-08-19T19:27:23.338Z,101443.94
2022-08-19T19:32:36.931Z,101441.88
2022-08-19T19:37:40.538Z,101442.38
2022-08-19T19:42:45.330Z,101449.75
2022-08-19T19:47:50.107Z,101449.97
2022-08-19T19:52:51.923Z,101443.31
2022-08-19T19:57:54.960Z,101438.75
2022-08-19T20:02:56.908Z,101447.38
2022-08-19T20:08:19.709Z,101439.94
2022-08-19T20:13:23.746Z,101446.44
2022-08-19T20:18:26.064Z,101435.03
2022-08-19T20:23:31.167Z,101431.88
2022-08-19T20:28:36.937Z,101446.97
2022-08-19T20:33:41.949Z,101454.34
2022-08-19T20:38:43.826Z,101464.78
2022-08-19T20:43:46.172Z,101470.09
2022-08-19T20:48:48.011Z,101466.22
2022-08-19T20:53:53.809Z,101472.16
2022-08-19T20:58:59.940Z,101465.19
2022-08-19T21:04:05.401Z,101478.63
2022-08-19T21:09:09.396Z,101486.94
2022-08-19T21:14:19.531Z,101479.69
2022-08-19T21:19:29.547Z,101477.69
2022-08-19T21:24:34.073Z,101472.50
2022-08-19T21:29:39.046Z,101489.91
2022-08-19T21:34:46.881Z,101490.63
2022-08-19T21:39:49.584Z,101488.63
2022-08-19T21:45:00.224Z,101488.25
2022-08-19T21:50:05.487Z,101491.47
2022-08-19T21:55:12.146Z,101485.66
2022-08-19T22:00:20.439Z,101476.66
2022-08-19T22:05:33.307Z,101484.97
2022-08-19T22:10:37.552Z,101478.94
2022-08-19T22:15:42.504Z,101479.16
2022-08-19T22:20:45.076Z,101478.34
2022-08-19T22:25:47.328Z,101479.63
2022-08-19T22:30:51.333Z,101492.66
2022-08-19T22:35:55.831Z,101489.94
2022-08-19T22:41:00.137Z,101492.06
2022-08-19T22:46:02.469Z,101501.88
2022-08-19T22:51:25.295Z,101491.47
2022-08-19T22:56:32.967Z,101496.53
2022-08-19T23:01:41.752Z,101497.63
2022-08-19T23:06:43.516Z,101501.97
2022-08-19T23:11:48.028Z,101489.69
2022-08-19T23:16:54.120Z,101508.97
2022-08-19T23:22:00.739Z,101502.94
2022-08-19T23:27:23.061Z,101508.25
2022-08-19T23:32:26.240Z,101507.91
2022-08-19T23:37:37.166Z,101500.19
2022-08-19T23:42:47.185Z,101496.63
2022-08-19T23:47:48.963Z,101505.00
2022-08-19T23:52:57.391Z,101500.03
2022-08-19T23:58:05.574Z,101491.28
